Time;durP1;ratioP1;P1;durP2;ratioP2;P2;SDS_P1;SDS_P2;PMS_P1;PMS_P2;Temp;Humidity;BMP_temperature;BMP_pressure;BME280_temperature;BME280_humidity;BME280_pressure;Samples;Min_cycle;Max_cycle;Signal;HPM_P1;HPM_P2
2022/04/25 00:00:54;;;;;;;2.73;2.53;;;9.10;99.90;;;;;;5031855;28;20431;-72
2022/04/25 00:03:19;;;;;;;2.80;2.60;;;9.10;99.90;;;;;;5032076;28;20191;-72
2022/04/25 00:05:45;;;;;;;2.90;2.70;;;9.00;99.90;;;;;;5031965;28;20267;-71
2022/04/25 00:08:11;;;;;;;3.83;3.03;;;9.20;99.90;;;;;;5031777;28;20274;-72
2022/04/25 00:10:37;;;;;;;4.10;3.70;;;9.10;99.90;;;;;;5014011;28;20439;-71
2022/04/25 00:13:02;;;;;;;3.00;2.77;;;9.10;99.90;;;;;;5031967;28;20234;-72
2022/04/25 00:15:28;;;;;;;3.33;3.03;;;9.10;99.90;;;;;;5031858;28;20784;-72
2022/04/25 00:17:54;;;;;;;4.00;3.50;;;9.10;99.90;;;;;;5013842;28;20747;-72
2022/04/25 00:20:20;;;;;;;3.63;3.33;;;9.10;99.90;;;;;;5031698;28;20431;-72
2022/04/25 00:22:46;;;;;;;3.63;3.37;;;9.20;99.90;;;;;;5031405;28;20195;-72
2022/04/25 00:25:12;;;;;;;3.77;3.47;;;9.10;99.90;;;;;;5031009;28;20677;-72
2022/04/25 00:27:38;;;;;;;3.50;3.20;;;9.10;99.90;;;;;;5031344;28;20473;-72
2022/04/25 00:30:05;;;;;;;2.90;2.70;;;9.10;99.90;;;;;;5013545;28;20471;-72
2022/04/25 00:32:30;;;;;;;6.97;4.23;;;9.20;99.90;;;;;;5031393;28;20668;-71
2022/04/25 00:34:56;;;;;;;3.80;3.40;;;9.20;99.90;;;;;;5013434;28;20438;-72
2022/04/25 00:37:21;;;;;;;6.13;3.80;;;9.20;99.90;;;;;;5031191;28;20223;-71
2022/04/25 00:39:47;;;;;;;4.73;3.93;;;9.20;99.90;;;;;;5013410;28;20300;-72
2022/04/25 00:42:14;;;;;;;4.83;4.30;;;9.20;99.90;;;;;;5031166;28;20177;-71
2022/04/25 00:44:41;;;;;;;5.20;4.30;;;9.20;99.90;;;;;;5030981;28;20419;-71
2022/04/25 00:47:08;;;;;;;4.73;4.33;;;9.20;99.90;;;;;;5030896;28;20442;-71
2022/04/25 00:49:35;;;;;;;4.77;4.33;;;9.10;99.90;;;;;;5012818;28;20415;-73
2022/04/25 00:52:00;;;;;;;4.43;4.03;;;9.20;99.90;;;;;;5031030;28;20411;-71
2022/04/25 00:54:26;;;;;;;4.10;3.80;;;9.10;99.90;;;;;;5013091;28;20770;-71
2022/04/25 00:56:52;;;;;;;4.33;3.93;;;9.20;99.90;;;;;;5012758;28;20495;-72
2022/04/25 00:59:19;;;;;;;4.90;4.50;;;9.20;99.90;;;;;;5032261;28;20929;-72
2022/04/25 01:01:46;;;;;;;4.83;4.43;;;9.20;99.90;;;;;;5031721;28;20819;-72
2022/04/25 01:04:11;;;;;;;7.97;5.20;;;9.20;99.90;;;;;;5013201;28;20510;-72
2022/04/25 01:06:37;;;;;;;5.97;5.37;;;9.20;99.90;;;;;;5030226;28;20509;-72
2022/04/25 01:09:05;;;;;;;5.93;5.33;;;9.20;99.90;;;;;;5030786;28;20431;-71
2022/04/25 01:11:31;;;;;;;4.90;4.50;;;9.20;99.90;;;;;;5030538;28;20519;-72
2022/04/25 01:13:56;;;;;;;5.10;4.60;;;9.20;99.90;;;;;;5030403;28;20514;-72
2022/04/25 01:16:22;;;;;;;7.83;5.90;;;9.20;99.90;;;;;;5030661;28;20463;-72
2022/04/25 01:18:48;;;;;;;5.13;4.63;;;9.20;99.90;;;;;;5012819;28;20711;-71
2022/04/25 01:21:17;;;;;;;6.03;5.43;;;9.20;99.90;;;;;;5030353;28;21001;-71
2022/04/25 01:29:10;;;;;;;8.40;6.07;;;9.20;99.90;;;;;;5015372;28;20463;-71
2022/04/25 01:31:37;;;;;;;5.40;4.90;;;9.20;99.90;;;;;;5030362;28;20415;-71
2022/04/25 01:34:04;;;;;;;5.90;5.30;;;9.20;99.90;;;;;;5012609;28;20292;-71
2022/04/25 01:36:30;;;;;;;6.73;6.13;;;9.20;99.90;;;;;;5030098;28;20574;-70
2022/04/25 01:38:56;;;;;;;5.60;4.67;;;9.20;99.90;;;;;;5030116;28;20439;-71
2022/04/25 01:41:22;;;;;;;6.30;5.50;;;9.40;99.90;;;;;;5030058;28;20972;-71
2022/04/25 01:43:48;;;;;;;6.83;4.70;;;9.30;99.90;;;;;;5012212;28;20195;-71
2022/04/25 01:46:13;;;;;;;5.80;4.70;;;9.30;99.90;;;;;;5012174;28;20187;-71
2022/04/25 01:48:39;;;;;;;4.60;4.20;;;9.30;99.90;;;;;;5029832;28;20200;-71
2022/04/25 01:51:05;;;;;;;10.43;6.30;;;9.20;99.90;;;;;;5030121;28;20642;-71
2022/04/25 01:53:30;;;;;;;6.90;6.20;;;9.30;99.90;;;;;;5030112;28;20188;-71
2022/04/25 01:55:56;;;;;;;7.73;6.93;;;9.30;99.90;;;;;;5030041;28;20212;-71
2022/04/25 01:58:21;;;;;;;8.73;7.70;;;9.20;99.90;;;;;;5030051;28;20209;-71
2022/04/25 02:00:47;;;;;;;11.70;7.97;;;9.20;99.90;;;;;;5030362;28;20208;-71
2022/04/25 02:03:13;;;;;;;11.07;8.67;;;9.30;99.90;;;;;;5012425;28;20226;-71
2022/04/25 02:05:39;;;;;;;15.90;10.83;;;9.20;99.90;;;;;;5012684;28;20242;-72
2022/04/25 02:08:05;;;;;;;13.30;11.10;;;9.20;99.90;;;;;;5029886;28;20439;-72
2022/04/25 02:10:31;;;;;;;15.00;11.00;;;9.20;99.90;;;;;;5012394;28;20433;-71
2022/04/25 02:12:57;;;;;;;15.43;12.47;;;9.30;99.90;;;;;;5030326;28;20428;-72
2022/04/25 02:15:23;;;;;;;15.20;10.30;;;9.30;99.90;;;;;;5030261;28;20260;-71
2022/04/25 02:17:49;;;;;;;12.00;9.37;;;9.30;99.90;;;;;;5030050;28;20201;-72
2022/04/25 02:20:15;;;;;;;15.53;12.00;;;9.20;99.90;;;;;;5029515;28;20429;-70
2022/04/25 02:22:41;;;;;;;18.30;14.37;;;9.30;99.90;;;;;;5030052;28;20176;-71
2022/04/25 02:25:07;;;;;;;18.30;14.73;;;9.30;99.90;;;;;;5030073;28;20708;-71
2022/04/25 02:27:33;;;;;;;20.63;14.93;;;9.30;99.90;;;;;;5029483;28;20514;-72
2022/04/25 02:29:59;;;;;;;20.30;16.13;;;9.30;99.90;;;;;;5029479;28;20433;-71
2022/04/25 02:32:27;;;;;;;17.57;15.47;;;9.30;99.90;;;;;;5011726;28;20176;-71
2022/04/25 02:34:54;;;;;;;21.70;16.47;;;9.20;99.90;;;;;;5029439;28;20432;-70
2022/04/25 02:37:21;;;;;;;23.23;18.47;;;9.10;99.90;;;;;;5028938;28;20480;-71
2022/04/25 02:39:46;;;;;;;22.63;17.90;;;9.20;99.90;;;;;;5029395;28;20435;-71
2022/04/25 02:42:12;;;;;;;21.97;17.87;;;9.20;99.90;;;;;;5029200;28;20415;-71
2022/04/25 02:44:38;;;;;;;24.30;18.90;;;9.10;99.90;;;;;;5029169;28;20419;-71
2022/04/25 02:47:04;;;;;;;23.03;17.13;;;9.10;99.90;;;;;;5011128;28;20208;-71
2022/04/25 02:49:29;;;;;;;26.20;17.70;;;9.20;99.90;;;;;;5029058;28;20279;-71
2022/04/25 02:51:55;;;;;;;20.33;15.70;;;9.20;99.90;;;;;;5028924;28;20424;-71
2022/04/25 02:54:21;;;;;;;20.67;17.00;;;9.20;99.90;;;;;;5029064;28;20213;-71
2022/04/25 02:56:48;;;;;;;22.07;17.00;;;9.10;99.90;;;;;;5028718;28;20212;-71
2022/04/25 02:59:14;;;;;;;21.40;16.30;;;9.10;99.90;;;;;;4994856;28;20292;-70
2022/04/25 03:01:40;;;;;;;22.07;16.67;;;9.10;99.90;;;;;;5028861;28;20464;-70
2022/04/25 03:04:06;;;;;;;18.70;15.40;;;9.10;99.90;;;;;;5011094;28;20411;-71
2022/04/25 03:06:31;;;;;;;23.33;17.00;;;9.10;99.90;;;;;;5028664;28;20926;-70
2022/04/25 03:08:57;;;;;;;21.60;16.27;;;9.10;99.90;;;;;;5028787;28;20650;-71
2022/04/25 03:11:24;;;;;;;23.67;17.57;;;9.10;99.90;;;;;;5011176;28;20181;-71
2022/04/25 03:13:50;;;;;;;22.27;17.13;;;9.10;99.90;;;;;;5028675;28;20184;-71
2022/04/25 03:16:17;;;;;;;22.90;17.80;;;9.10;99.90;;;;;;5011009;28;20451;-72
2022/04/25 03:18:43;;;;;;;26.37;18.13;;;9.20;99.90;;;;;;5028509;28;20970;-71
2022/04/25 03:21:08;;;;;;;20.67;16.13;;;9.10;99.90;;;;;;5028454;28;20415;-70
2022/04/25 03:23:36;;;;;;;23.40;16.73;;;9.10;99.90;;;;;;5028443;28;20192;-72
2022/04/25 03:26:02;;;;;;;20.43;15.53;;;9.10;99.90;;;;;;5028600;28;20191;-71
2022/04/25 03:28:28;;;;;;;19.43;15.70;;;9.10;99.90;;;;;;5028498;28;20959;-71
2022/04/25 03:30:53;;;;;;;20.50;16.90;;;9.10;99.90;;;;;;5030835;28;20461;-71
2022/04/25 03:33:19;;;;;;;21.07;15.60;;;9.10;99.90;;;;;;5014412;28;20264;-72
2022/04/25 03:35:48;;;;;;;21.10;16.03;;;9.10;99.90;;;;;;5032830;28;20208;-71
2022/04/25 03:38:21;;;;;;;21.53;16.60;;;9.10;99.90;;;;;;5014536;28;20263;-71
2022/04/25 03:40:47;;;;;;;22.37;16.77;;;9.10;99.90;;;;;;5032389;28;20432;-71
2022/04/25 03:43:15;;;;;;;24.87;16.37;;;9.10;99.90;;;;;;5032350;28;20450;-71
2022/04/25 03:45:41;;;;;;;22.70;18.03;;;9.10;99.90;;;;;;5032185;28;20502;-71
2022/04/25 03:48:07;;;;;;;23.17;17.40;;;9.00;99.90;;;;;;5032303;28;20475;-73
2022/04/25 03:50:33;;;;;;;23.53;17.10;;;9.00;99.90;;;;;;5032396;28;20465;-73
2022/04/25 03:53:08;;;;;;;23.50;18.10;;;9.00;99.90;;;;;;5034795;28;20432;-71
2022/04/25 03:58:18;;;;;;;23.17;18.17;;;9.00;99.90;;;;;;5033426;28;20890;-71
2022/04/25 04:00:44;;;;;;;27.10;20.23;;;9.00;99.90;;;;;;5032999;28;20522;-71
2022/04/25 04:03:12;;;;;;;21.93;17.80;;;9.00;99.90;;;;;;5032277;28;20490;-72
2022/04/25 04:05:40;;;;;;;27.00;19.27;;;9.00;99.90;;;;;;5032249;28;20431;-71
2022/04/25 04:08:06;;;;;;;25.00;19.67;;;8.90;99.90;;;;;;5047314;28;20485;-71
2022/04/25 04:10:32;;;;;;;31.50;20.13;;;8.80;99.90;;;;;;5038536;28;20426;-71
2022/04/25 04:12:59;;;;;;;29.60;22.47;;;8.90;99.90;;;;;;5031844;28;20193;-71
2022/04/25 04:15:25;;;;;;;30.17;22.57;;;8.80;99.90;;;;;;5031570;28;20295;-71
2022/04/25 04:17:50;;;;;;;30.30;22.07;;;8.80;99.90;;;;;;5031608;28;20549;-73
2022/04/25 04:20:16;;;;;;;32.13;22.67;;;8.80;99.90;;;;;;5031835;28;20191;-72
2022/04/25 04:22:42;;;;;;;31.10;22.47;;;8.80;99.90;;;;;;5031836;28;20187;-72
2022/04/25 04:25:14;;;;;;;31.47;23.47;;;8.80;99.90;;;;;;5031527;28;20270;-73
2022/04/25 04:27:43;;;;;;;32.80;21.80;;;8.80;99.90;;;;;;5032680;28;20861;-73
2022/04/25 04:30:13;;;;;;;32.53;22.60;;;8.80;99.90;;;;;;5032515;28;20420;-73
2022/04/25 04:32:40;;;;;;;28.30;21.23;;;8.70;99.90;;;;;;5031520;28;20414;-73
2022/04/25 04:35:09;;;;;;;30.43;21.73;;;8.70;99.90;;;;;;4997204;28;20427;-73
2022/04/25 04:37:35;;;;;;;31.50;23.03;;;8.80;99.90;;;;;;5012539;28;20493;-73
2022/04/25 04:42:46;;;;;;;31.83;22.67;;;8.70;99.90;;;;;;5014070;28;20430;-73
2022/04/25 04:45:12;;;;;;;33.57;23.03;;;8.80;99.90;;;;;;5029672;28;20427;-73
2022/04/25 04:47:39;;;;;;;29.80;22.17;;;8.70;99.90;;;;;;5029661;28;20209;-72
2022/04/25 04:50:10;;;;;;;35.50;22.73;;;8.60;99.90;;;;;;5011776;28;20489;-73
2022/04/25 04:52:37;;;;;;;31.73;22.17;;;8.60;99.90;;;;;;5029485;28;20970;-73
2022/04/25 04:55:03;;;;;;;31.17;22.97;;;8.60;99.90;;;;;;5011590;28;20503;-73
2022/04/25 04:57:28;;;;;;;30.50;23.50;;;8.60;99.90;;;;;;5011374;28;20948;-73
2022/04/25 04:59:54;;;;;;;37.73;23.47;;;8.70;99.90;;;;;;5029446;28;20426;-73
2022/04/25 05:02:19;;;;;;;31.93;22.80;;;8.70;99.90;;;;;;5029438;28;20638;-73
2022/04/25 05:04:45;;;;;;;30.97;21.13;;;8.80;99.90;;;;;;5029508;28;20591;-73
2022/04/25 05:07:11;;;;;;;23.93;19.67;;;8.80;99.90;;;;;;5029328;28;20211;-73
2022/04/25 05:09:36;;;;;;;24.90;19.30;;;8.80;99.90;;;;;;5029147;28;20189;-73
2022/04/25 05:12:02;;;;;;;29.40;19.70;;;9.00;99.90;;;;;;5029099;28;20182;-73
2022/04/25 05:14:28;;;;;;;28.20;19.20;;;9.00;99.90;;;;;;5029380;28;20184;-73
2022/04/25 05:16:54;;;;;;;25.80;19.10;;;9.10;99.90;;;;;;5028708;28;20483;-73
2022/04/25 05:19:20;;;;;;;23.20;17.30;;;9.20;99.90;;;;;;5028850;28;20191;-73
2022/04/25 05:21:46;;;;;;;24.90;18.97;;;9.30;99.90;;;;;;5028962;28;20177;-73
2022/04/25 05:24:12;;;;;;;26.93;19.57;;;9.30;99.90;;;;;;5028709;28;20723;-73
2022/04/25 05:26:38;;;;;;;24.10;18.23;;;9.30;99.90;;;;;;5028591;28;20426;-73
2022/04/25 05:29:03;;;;;;;24.17;19.20;;;9.40;99.90;;;;;;5028817;28;20189;-73
2022/04/25 05:31:29;;;;;;;21.93;18.70;;;9.50;99.90;;;;;;5010899;28;20725;-73
2022/04/25 05:33:55;;;;;;;22.97;18.60;;;9.60;99.90;;;;;;5028694;28;20219;-73
2022/04/25 05:36:20;;;;;;;24.33;17.17;;;9.60;99.90;;;;;;5028663;28;20323;-73
2022/04/25 05:38:46;;;;;;;21.63;17.57;;;9.70;99.90;;;;;;5011309;28;20211;-73
2022/04/25 05:41:12;;;;;;;21.53;18.10;;;9.70;99.90;;;;;;5028750;28;20198;-72
2022/04/25 05:43:38;;;;;;;24.07;18.60;;;9.80;99.90;;;;;;5029251;28;20188;-73
2022/04/25 05:46:03;;;;;;;26.40;21.07;;;9.80;99.90;;;;;;5028974;28;20738;-73
2022/04/25 05:54:12;;;;;;;26.13;21.37;;;9.90;99.90;;;;;;4983384;28;20424;-73
2022/04/25 05:56:39;;;;;;;28.13;22.97;;;9.90;99.90;;;;;;5028104;28;20482;-73
2022/04/25 05:59:04;;;;;;;28.80;21.77;;;9.90;99.90;;;;;;5028078;28;20177;-73
2022/04/25 06:01:30;;;;;;;30.37;21.27;;;10.00;99.90;;;;;;5028059;28;20558;-72
2022/04/25 06:03:56;;;;;;;25.10;21.03;;;10.00;99.90;;;;;;5028083;28;20188;-73
2022/04/25 06:06:23;;;;;;;27.93;21.23;;;10.00;99.90;;;;;;5028183;28;20189;-73
2022/04/25 06:08:49;;;;;;;27.30;20.93;;;10.10;99.90;;;;;;5027977;28;20592;-72
2022/04/25 06:11:15;;;;;;;27.40;21.10;;;10.20;99.90;;;;;;5028014;28;20427;-72
2022/04/25 06:13:44;;;;;;;24.87;18.90;;;10.30;99.90;;;;;;5009886;28;20432;-73
2022/04/25 06:16:11;;;;;;;28.10;21.17;;;10.40;99.90;;;;;;5027815;28;20200;-73
2022/04/25 06:18:36;;;;;;;24.30;20.50;;;10.40;99.90;;;;;;5027650;28;20527;-73
2022/04/25 06:21:02;;;;;;;23.33;19.00;;;10.50;99.90;;;;;;5009698;28;20507;-72
2022/04/25 06:23:28;;;;;;;26.50;19.50;;;10.50;99.90;;;;;;5027129;28;20185;-73
2022/04/25 06:25:54;;;;;;;25.20;20.67;;;10.50;99.90;;;;;;5027239;28;20665;-72
2022/04/25 06:28:19;;;;;;;25.77;20.23;;;10.50;99.90;;;;;;5027574;28;20208;-72
2022/04/25 06:30:45;;;;;;;26.13;20.33;;;10.50;99.90;;;;;;5027674;28;20185;-72
2022/04/25 06:33:10;;;;;;;25.40;20.67;;;10.60;99.90;;;;;;5027596;28;20720;-72
2022/04/25 06:35:36;;;;;;;22.20;19.23;;;10.70;99.90;;;;;;5027612;28;20236;-72
2022/04/25 06:38:02;;;;;;;25.20;20.93;;;10.90;99.90;;;;;;5027609;28;20606;-72
2022/04/25 06:40:28;;;;;;;24.50;20.37;;;11.00;99.90;;;;;;5027768;28;20177;-72
2022/04/25 06:42:55;;;;;;;25.07;20.00;;;11.20;99.90;;;;;;5009764;28;20427;-72
2022/04/25 06:45:21;;;;;;;23.80;18.87;;;11.20;99.90;;;;;;5027796;28;20523;-72
2022/04/25 06:47:47;;;;;;;24.17;19.20;;;11.40;99.90;;;;;;5009848;28;20461;-72
2022/04/25 06:50:13;;;;;;;22.23;19.57;;;11.40;99.90;;;;;;5027830;28;20178;-72
2022/04/25 06:52:39;;;;;;;21.77;19.27;;;11.60;99.90;;;;;;5027755;28;20421;-72
2022/04/25 06:55:05;;;;;;;19.40;17.30;;;11.70;99.90;;;;;;5027659;28;20170;-72
2022/04/25 06:57:33;;;;;;;23.10;17.97;;;11.90;99.90;;;;;;5027316;28;20980;-72
2022/04/25 07:00:08;;;;;;;20.40;18.03;;;12.00;99.90;;;;;;5027823;28;20553;-73
2022/04/25 07:02:35;;;;;;;20.60;17.50;;;12.30;99.90;;;;;;5009582;28;20424;-72
2022/04/25 07:05:01;;;;;;;23.77;17.80;;;12.30;99.90;;;;;;5027028;28;20422;-72
2022/04/25 07:07:27;;;;;;;19.73;17.43;;;12.30;99.90;;;;;;5027232;28;20449;-72
2022/04/25 07:09:52;;;;;;;21.60;17.37;;;12.30;99.90;;;;;;5027448;28;20200;-72
2022/04/25 07:12:18;;;;;;;21.50;17.97;;;12.30;99.90;;;;;;5027239;28;20191;-73
2022/04/25 07:14:43;;;;;;;19.50;16.00;;;12.30;99.90;;;;;;5027496;28;20686;-73
2022/04/25 07:17:09;;;;;;;20.97;17.73;;;12.20;99.90;;;;;;5026967;28;20210;-72
2022/04/25 07:19:39;;;;;;;19.93;17.30;;;12.10;99.90;;;;;;5026958;28;20215;-72
2022/04/25 07:30:19;;;;;;;20.37;16.40;;;11.80;99.90;;;;;;5027137;28;20419;-73
2022/04/25 07:32:45;;;;;;;22.83;17.77;;;11.80;99.90;;;;;;5026950;28;20433;-72
2022/04/25 07:35:11;;;;;;;20.33;17.93;;;11.90;99.90;;;;;;5027031;28;20190;-72
2022/04/25 07:37:36;;;;;;;24.30;18.10;;;11.80;99.90;;;;;;5009173;28;20300;-72
2022/04/25 07:40:06;;;;;;;19.90;16.93;;;11.80;99.90;;;;;;5027179;28;20425;-72
2022/04/25 07:42:32;;;;;;;19.63;16.47;;;11.80;99.90;;;;;;5026984;28;20178;-72
2022/04/25 07:44:58;;;;;;;20.07;16.37;;;11.80;99.90;;;;;;5026915;28;20422;-72
2022/04/25 07:47:24;;;;;;;22.23;17.80;;;11.70;99.90;;;;;;5026791;28;20448;-72
2022/04/25 07:49:50;;;;;;;21.23;16.70;;;11.90;99.90;;;;;;4992655;28;20425;-73
2022/04/25 07:52:17;;;;;;;20.73;18.10;;;11.90;99.90;;;;;;5026937;28;20204;-72
2022/04/25 07:54:43;;;;;;;19.50;16.87;;;12.00;99.90;;;;;;5027067;28;20492;-73
2022/04/25 07:57:09;;;;;;;22.77;16.87;;;12.10;99.90;;;;;;5027350;28;20893;-73
2022/04/25 07:59:35;;;;;;;18.60;16.57;;;12.00;99.90;;;;;;5009565;28;20465;-73
2022/04/25 08:02:02;;;;;;;22.50;17.43;;;11.70;99.90;;;;;;5009792;28;20180;-74
2022/04/25 08:04:28;;;;;;;22.00;16.93;;;11.50;99.90;;;;;;5028011;28;20616;-73
2022/04/25 08:06:53;;;;;;;20.10;16.70;;;11.70;99.90;;;;;;5011528;28;20428;-72
2022/04/25 08:09:19;;;;;;;18.47;15.07;;;11.90;99.90;;;;;;5027586;28;21029;-73
2022/04/25 08:11:45;;;;;;;18.30;16.30;;;12.10;99.90;;;;;;5027620;28;20272;-73
2022/04/25 08:19:39;;;;;;;19.43;15.43;;;12.80;99.90;;;;;;5031373;28;20871;-73
2022/04/25 08:22:07;;;;;;;17.67;15.20;;;13.30;99.90;;;;;;5031545;28;20424;-73
2022/04/25 08:24:33;;;;;;;17.77;15.17;;;13.20;99.90;;;;;;5049375;28;20187;-73
2022/04/25 08:26:59;;;;;;;15.60;12.73;;;13.30;99.90;;;;;;5051373;28;20504;-73
2022/04/25 08:29:24;;;;;;;14.90;13.30;;;13.50;99.90;;;;;;5016686;28;20435;-73
2022/04/25 08:31:51;;;;;;;15.03;12.67;;;13.90;99.90;;;;;;5014567;28;20434;-74
2022/04/25 08:34:17;;;;;;;15.50;13.40;;;14.00;99.90;;;;;;5031837;28;20271;-74
2022/04/25 08:36:43;;;;;;;15.40;12.70;;;14.30;99.90;;;;;;5031561;28;20553;-73
2022/04/25 08:39:09;;;;;;;17.20;13.17;;;14.20;99.90;;;;;;5031340;28;20451;-74
2022/04/25 08:41:50;;;;;;;14.30;12.80;;;14.40;99.90;;;;;;5030565;28;20415;-73
2022/04/25 08:44:17;;;;;;;15.23;13.10;;;14.40;99.90;;;;;;5012275;28;20555;-73
2022/04/25 08:46:47;;;;;;;15.00;12.97;;;14.20;99.90;;;;;;5030002;28;20423;-73
2022/04/25 08:49:15;;;;;;;14.63;12.80;;;14.20;99.90;;;;;;5030559;28;20926;-73
2022/04/25 08:51:41;;;;;;;17.33;14.50;;;14.30;99.90;;;;;;5030155;28;20424;-73
2022/04/25 08:54:08;;;;;;;15.37;12.80;;;14.40;99.90;;;;;;5029969;28;20429;-74
2022/04/25 08:56:39;;;;;;;13.90;12.43;;;14.40;99.90;;;;;;5030270;28;20832;-73
2022/04/25 08:59:07;;;;;;;15.47;13.07;;;14.30;99.90;;;;;;5029945;28;20468;-74
2022/04/25 09:01:34;;;;;;;14.30;12.30;;;14.20;99.90;;;;;;5030137;28;20578;-73
2022/04/25 09:04:03;;;;;;;19.47;13.93;;;14.00;99.90;;;;;;5030038;28;20415;-73
2022/04/25 09:06:29;;;;;;;16.57;13.93;;;14.00;99.90;;;;;;5030308;28;20532;-73
2022/04/25 09:08:56;;;;;;;17.40;14.00;;;13.90;99.90;;;;;;5029825;28;20442;-74
2022/04/25 09:14:09;;;;;;;20.00;15.17;;;13.80;99.90;;;;;;5030184;28;20791;-74
2022/04/25 09:16:35;;;;;;;16.83;14.73;;;14.00;99.90;;;;;;5029558;28;20515;-73
2022/04/25 09:19:00;;;;;;;16.97;15.23;;;14.00;99.90;;;;;;5029782;28;20415;-74
2022/04/25 09:21:26;;;;;;;17.40;14.67;;;14.90;99.90;;;;;;5029733;28;20184;-73
2022/04/25 09:23:52;;;;;;;15.20;13.60;;;15.60;99.90;;;;;;5029671;28;20423;-73
2022/04/25 09:26:20;;;;;;;14.63;13.13;;;15.60;99.90;;;;;;5029667;28;20203;-74
2022/04/25 09:28:47;;;;;;;15.33;13.00;;;16.00;99.90;;;;;;5029273;28;20192;-73
2022/04/25 09:31:14;;;;;;;17.23;14.00;;;16.80;99.90;;;;;;5029628;28;20419;-73
2022/04/25 09:33:40;;;;;;;15.80;13.00;;;17.50;99.90;;;;;;5029336;28;20446;-73
2022/04/25 09:36:06;;;;;;;14.93;13.33;;;17.90;99.20;;;;;;5028746;28;20503;-73
2022/04/25 09:38:36;;;;;;;15.63;12.53;;;18.40;99.90;;;;;;5028665;28;20209;-74
2022/04/25 09:41:04;;;;;;;14.20;11.90;;;18.00;97.00;;;;;;5028904;28;20189;-74
2022/04/25 09:43:32;;;;;;;14.70;11.90;;;18.20;98.40;;;;;;5028586;28;20473;-74
2022/04/25 09:46:24;;;;;;;13.87;12.07;;;18.90;97.80;;;;;;5028446;28;20886;-74
2022/04/25 09:49:03;;;;;;;14.43;12.47;;;19.10;94.40;;;;;;5023697;28;20495;-74
2022/04/25 09:51:29;;;;;;;13.93;11.20;;;19.40;97.10;;;;;;5010420;28;21044;-77
2022/04/25 09:53:55;;;;;;;13.73;11.70;;;19.80;95.20;;;;;;5010466;28;20434;-74
2022/04/25 09:56:26;;;;;;;14.93;11.70;;;19.90;93.90;;;;;;5028304;28;20470;-74
2022/04/25 09:59:06;;;;;;;13.83;11.70;;;20.00;93.60;;;;;;5010553;28;20537;-74
2022/04/25 10:01:37;;;;;;;13.80;11.27;;;20.20;93.30;;;;;;5010557;28;20442;-74
2022/04/25 10:04:05;;;;;;;13.50;12.10;;;20.30;92.30;;;;;;5011147;28;20430;-73
2022/04/25 10:06:35;;;;;;;14.17;12.77;;;20.20;92.70;;;;;;5010591;28;20427;-74
2022/04/25 10:09:08;;;;;;;12.67;11.47;;;20.40;93.20;;;;;;5028458;28;20475;-74
2022/04/25 10:11:35;;;;;;;13.60;11.43;;;20.30;92.60;;;;;;5028913;28;20406;-74
2022/04/25 10:14:02;;;;;;;11.47;10.30;;;20.60;92.20;;;;;;5028831;28;20429;-74
2022/04/25 10:16:31;;;;;;;12.77;11.47;;;20.40;90.40;;;;;;5010986;28;20989;-74
2022/04/25 10:18:57;;;;;;;12.03;10.73;;;20.70;92.30;;;;;;5028737;28;20451;-74
2022/04/25 10:21:25;;;;;;;13.10;11.70;;;20.60;91.10;;;;;;5028750;28;20433;-74
2022/04/25 10:23:51;;;;;;;13.90;11.87;;;19.70;92.00;;;;;;5028801;28;20411;-74
2022/04/25 10:26:17;;;;;;;13.30;12.00;;;18.90;92.50;;;;;;5028647;28;20438;-74
2022/04/25 10:28:59;;;;;;;11.83;10.73;;;18.90;94.10;;;;;;5028616;28;21270;-74
2022/04/25 10:31:28;;;;;;;11.73;10.63;;;19.60;94.90;;;;;;5028711;28;20185;-74
2022/04/25 10:33:59;;;;;;;10.73;9.73;;;20.10;91.40;;;;;;5010402;28;20924;-73
2022/04/25 10:36:37;;;;;;;13.90;10.70;;;20.50;91.60;;;;;;5028103;28;20557;-74
2022/04/25 10:39:24;;;;;;;12.83;10.80;;;20.70;92.80;;;;;;5009725;28;20422;-74
2022/04/25 10:44:42;;;;;;;10.50;9.40;;;21.20;91.40;;;;;;5027474;28;20409;-74
2022/04/25 10:47:11;;;;;;;10.93;9.87;;;21.40;91.10;;;;;;5027600;28;20437;-74
2022/04/25 10:49:37;;;;;;;10.37;8.83;;;20.80;90.40;;;;;;5027611;28;20408;-74
2022/04/25 10:52:33;;;;;;;10.43;9.47;;;20.90;91.40;;;;;;5027377;28;20430;-74
2022/04/25 10:55:29;;;;;;;11.20;10.00;;;20.00;90.30;;;;;;5027366;28;20428;-73
2022/04/25 10:58:01;;;;;;;10.37;9.27;;;19.30;92.40;;;;;;5027498;28;20490;-74
2022/04/25 11:00:36;;;;;;;10.47;9.37;;;19.50;92.20;;;;;;5027477;28;20425;-74
2022/04/25 11:03:20;;;;;;;12.00;9.30;;;19.70;92.80;;;;;;5027522;28;20462;-74
2022/04/25 11:05:48;;;;;;;11.17;10.07;;;19.40;90.60;;;;;;5027305;28;20421;-74
2022/04/25 11:08:19;;;;;;;10.47;9.57;;;19.40;91.60;;;;;;5027176;28;20453;-74
2022/04/25 11:10:57;;;;;;;11.47;9.50;;;19.30;92.70;;;;;;5027290;28;20414;-73
2022/04/25 11:13:26;;;;;;;9.90;8.90;;;18.90;92.80;;;;;;5027194;28;20963;-73
2022/04/25 11:15:56;;;;;;;12.40;10.70;;;18.50;94.10;;;;;;5009623;28;21038;-74
2022/04/25 11:18:33;;;;;;;11.10;10.00;;;18.20;94.40;;;;;;5027387;28;20993;-74
2022/04/25 11:21:05;;;;;;;11.57;10.37;;;17.90;94.70;;;;;;5027148;28;20423;-74
2022/04/25 11:23:35;;;;;;;11.60;9.83;;;17.60;95.30;;;;;;5027164;28;21230;-74
2022/04/25 11:26:04;;;;;;;12.50;11.03;;;17.20;96.50;;;;;;5027057;28;20437;-74
2022/04/25 11:28:30;;;;;;;14.37;10.13;;;16.80;94.10;;;;;;5027270;28;20458;-74
2022/04/25 11:31:17;;;;;;;14.33;10.00;;;16.50;96.70;;;;;;5027053;28;20429;-74
2022/04/25 11:33:44;;;;;;;11.07;9.87;;;16.20;98.50;;;;;;5027140;28;20495;-74
2022/04/25 11:36:11;;;;;;;12.63;11.33;;;16.00;98.20;;;;;;5027094;28;20500;-74
2022/04/25 11:41:23;;;;;;;8.70;6.70;;;14.90;99.90;;;;;;5027219;28;21113;-74
2022/04/25 11:43:48;;;;;;;9.80;7.47;;;13.70;99.90;;;;;;5027342;28;20788;-74
2022/04/25 11:46:16;;;;;;;8.67;7.77;;;13.10;99.90;;;;;;5008803;28;20889;-74
2022/04/25 11:48:42;;;;;;;18.57;7.30;;;12.70;99.90;;;;;;5008667;28;20454;-74
2022/04/25 11:51:08;;;;;;;12.70;8.03;;;11.80;99.90;;;;;;5027560;28;20436;-75
2022/04/25 11:53:34;;;;;;;9.33;7.73;;;11.40;99.90;;;;;;5031379;28;20434;-75
2022/04/25 11:56:16;;;;;;;11.47;9.73;;;11.30;99.90;;;;;;5032096;28;20985;-75
2022/04/25 11:58:42;;;;;;;14.27;9.67;;;11.20;99.90;;;;;;5030467;28;20484;-74
2022/04/25 12:01:09;;;;;;;6.90;6.20;;;11.30;99.90;;;;;;5030551;28;20449;-74
2022/04/25 12:03:36;;;;;;;7.20;6.50;;;11.20;99.90;;;;;;5030369;28;20422;-74
2022/04/25 12:06:12;;;;;;;10.90;7.57;;;11.10;99.90;;;;;;5012329;28;20947;-74
2022/04/25 12:17:00;;;;;;;8.60;5.80;;;10.50;99.90;;;;;;5031066;28;20465;-74
2022/04/25 12:19:25;;;;;;;6.73;5.60;;;10.30;99.90;;;;;;5030978;28;20412;-74
2022/04/25 12:22:03;;;;;;;6.90;6.20;;;10.10;99.90;;;;;;5031124;28;20446;-74
2022/04/25 12:24:29;;;;;;;6.00;5.50;;;10.20;99.90;;;;;;5029657;28;20961;-74
2022/04/25 12:26:55;;;;;;;10.13;7.10;;;10.20;99.90;;;;;;5030290;28;20544;-74
2022/04/25 12:29:20;;;;;;;6.17;5.63;;;10.20;99.90;;;;;;5030062;28;20423;-74
2022/04/25 12:31:47;;;;;;;7.43;6.30;;;10.30;99.90;;;;;;5030098;28;20280;-74
2022/04/25 12:34:16;;;;;;;7.27;6.30;;;10.40;99.90;;;;;;5012192;28;20653;-75
2022/04/25 12:36:58;;;;;;;8.23;7.17;;;10.40;99.90;;;;;;5029657;28;20456;-74
2022/04/25 12:39:27;;;;;;;7.07;6.37;;;10.30;99.90;;;;;;5029715;28;20414;-74
2022/04/25 12:41:56;;;;;;;7.43;6.73;;;10.30;99.90;;;;;;5029733;28;20419;-74
2022/04/25 12:44:23;;;;;;;7.80;7.00;;;10.30;99.90;;;;;;5029708;28;20424;-74
2022/04/25 12:46:52;;;;;;;9.73;6.90;;;10.30;99.90;;;;;;5011500;28;21072;-74
2022/04/25 12:49:31;;;;;;;7.53;6.73;;;10.40;99.90;;;;;;5029896;28;20447;-74
2022/04/25 12:51:59;;;;;;;6.80;6.20;;;10.60;99.90;;;;;;5031576;28;20410;-74
2022/04/25 12:54:31;;;;;;;7.10;6.37;;;10.60;99.90;;;;;;5031623;28;20871;-74
2022/04/25 12:57:16;;;;;;;7.13;6.43;;;10.60;99.90;;;;;;5031758;28;20471;-74
2022/04/25 12:59:47;;;;;;;7.00;6.30;;;10.70;99.90;;;;;;5031960;28;20497;-75
2022/04/25 13:02:17;;;;;;;7.33;6.70;;;10.80;99.90;;;;;;5012866;28;20424;-75
2022/04/25 13:04:59;;;;;;;8.80;7.33;;;10.80;99.90;;;;;;5031120;28;20420;-74
2022/04/25 13:07:31;;;;;;;10.00;7.73;;;10.90;99.90;;;;;;5030607;28;20988;-74
2022/04/25 13:09:59;;;;;;;6.27;5.77;;;10.90;99.90;;;;;;5030979;28;20418;-75
2022/04/25 13:12:35;;;;;;;7.07;6.37;;;11.00;99.90;;;;;;5011936;28;20433;-75
2022/04/25 13:15:06;;;;;;;6.13;5.53;;;11.00;99.90;;;;;;5011787;28;20416;-75
2022/04/25 13:17:32;;;;;;;7.30;6.60;;;11.20;99.90;;;;;;5011589;28;20881;-75
2022/04/25 13:19:58;;;;;;;6.60;6.00;;;11.50;99.90;;;;;;5010943;28;20831;-75
2022/04/25 13:22:24;;;;;;;6.30;5.73;;;11.60;99.90;;;;;;5029017;28;20426;-74
2022/04/25 13:24:49;;;;;;;4.40;4.00;;;11.80;99.90;;;;;;5028622;28;20454;-74
2022/04/25 13:27:16;;;;;;;5.50;5.10;;;11.80;99.90;;;;;;5028912;28;20209;-74